Portada
METAR-TAF:

METAR-TAF

Aeroports :

La Paz, Bolívia

latitud: 16-31S, longitud: 068-11W, altitud: 4058 m

Observació

L'informe es va fer fa 42 minuts, a les 16:00 UTC
Vent 12 kt del Oest amb ràfegues de 22 kt
Temperatura 14°C
Humitat 19%
Pressió 1040 hPa
Visibilitat 10 km o més
Escasses núvols a una alçada de 1700 ft

METAR: SLLP 251600Z 28012G22KT 9999 FEW017 14/M09 Q1040

Hora: 12:42 (16:42 UTC)

Pronòstic

L'informe es va fer fa 6 hores i 42 minuts, a les 10:00 UTC
Pronòstic vàlid del 25 a les 12 UTC al 26 a les 12 UTC
Vent 2 kt amb direcció variable
Visibilitat 10 km o més
Evolucionant progressivament
l' 25 a les 14 UTC al 25 a les 16 UTC
Vent 12 kt del Oest
Temporalment
l' 25 a les 19 UTC al 25 a les 23 UTC
Vent 15 kt del Oest/Nord-Oest amb ràfegues de 25 kt
Evolucionant progressivament
l' 25 a les 23 UTC al 26 a les 02 UTC
Vent 6 kt del Est/Nord-Est

TAF: SLLP 251000Z 2512/2612 VRB02KT 9999 NSC TX16/2519Z TNM02/2610Z BECMG 2514/2516 28012KT TEMPO 2519/2523 30015G25KT BECMG 2523/2602 07006KT

Observacions i pronòstics meteorològics de més de 4000 aeroports (METAR i TAF).

Les estacions disponibles són els punts grocs i vermells al mapa.

Posi el ratolí al punt desitjat per veure el nom de l'estació.

Feu clic per veure les observacions i els pronòstics meteorològics.

Per canviar el mapa: feu clic els botons verds amb una creu de color negre per apropar; al botó verd amb un guió per allunyar la imatge; o en les fletxes verdes per a mapes adjacents.


METAR-TAF: